Delmita, Texas
Current Conditions -  °F | °C
As of 5:55 PM on Saturday 25 Oct 2014 (Local Time) from KEBG Reporting Station
Clear Clear  
Wind Chill: 85°   Ceiling: Unl
Heat Index: 86°   Visibility: 10mi
Dew Point: 63°   Wind: 12mph
Humidity: 46%   Direction: 100°E
Pressure: 30.07"   Gusts: NA
Location:  26.68°N, 98.41°W
Report Text: KEBG 252255Z AUTO 10010KT 10SM CLR 30/17 A3007 RMK AO2 T02960170
Loading
Personal Weather Stations






























Interactive Weather Map
Tropical Storm Tracking
New forecast layout! Learn more

10-Day Weather Forecast

Advertisements
Track Severe Weather on mobile